Time;durP1;ratioP1;P1;durP2;ratioP2;P2;SDS_P1;SDS_P2;PMS_P1;PMS_P2;Temp;Humidity;BMP_temperature;BMP_pressure;BME280_temperature;BME280_humidity;BME280_pressure;Samples;Min_cycle;Max_cycle;Signal;HPM_P1;HPM_P2
2022/03/13 00:00:49;;;;;;;16.42;8.10;;;;;;;9.46;62.72;101397.56;4984389;28;20030;-93
2022/03/13 00:03:33;;;;;;;;;;;;;;;;;;;;;
2022/03/13 00:05:59;;;;;;;13.85;7.78;;;;;;;9.36;62.92;101387.44;4975971;28;20033;-92
2022/03/13 00:08:31;;;;;;;13.93;7.90;;;;;;;9.34;63.04;101380.69;4997268;28;20057;-93
2022/03/13 00:11:30;;;;;;;14.80;7.60;;;;;;;9.35;63.26;101382.31;4999164;28;20074;-92
2022/03/13 00:13:55;;;;;;;11.53;7.03;;;;;;;9.33;63.23;101384.41;4965282;28;20100;-92
2022/03/13 00:16:21;;;;;;;13.33;8.27;;;;;;;9.34;63.50;101381.53;4997082;28;20296;-95
2022/03/13 00:18:47;;;;;;;13.67;6.90;;;;;;;9.41;63.52;101394.75;5013394;28;20468;-94
2022/03/13 00:21:14;;;;;;;13.73;7.40;;;;;;;9.40;63.70;101390.47;5012627;28;20068;-95
2022/03/13 00:23:42;;;;;;;12.80;7.63;;;;;;;9.34;63.60;101378.03;5013096;28;20044;-94
2022/03/13 00:26:08;;;;;;;13.88;7.97;;;;;;;9.36;63.43;101390.13;5011790;28;20028;-93
2022/03/13 00:28:39;;;;;;;11.85;7.72;;;;;;;9.22;63.78;101370.84;4993380;28;20030;-94
2022/03/13 00:31:06;;;;;;;14.07;8.40;;;;;;;9.26;63.50;101378.41;4993482;28;20470;-95
2022/03/13 00:33:32;;;;;;;18.67;9.00;;;;;;;9.31;63.72;101378.53;4993354;28;20313;-96
2022/03/13 00:35:58;;;;;;;18.17;8.68;;;;;;;9.21;63.21;101366.53;4992991;28;20148;-95
2022/03/13 00:38:30;;;;;;;15.88;9.02;;;;;;;9.16;63.63;101350.38;5012494;28;20220;-94
2022/03/13 00:40:57;;;;;;;14.30;8.07;;;;;;;9.18;63.28;101344.81;4997759;28;20057;-94
2022/03/13 00:43:25;;;;;;;13.63;7.87;;;;;;;9.15;63.43;101340.72;4998346;28;20476;-95
2022/03/13 00:45:52;;;;;;;14.20;7.80;;;;;;;9.20;63.41;101356.09;5000251;28;20797;-95
2022/03/13 00:48:19;;;;;;;16.60;8.70;;;;;;;9.18;64.19;101350.97;4975224;28;20507;-95
2022/03/13 00:50:45;;;;;;;13.52;8.35;;;;;;;9.19;63.91;101375.84;4994512;28;20026;-95
2022/03/13 00:53:12;;;;;;;14.43;8.82;;;;;;;9.08;64.16;101362.25;4995143;28;20022;-95
2022/03/13 00:55:37;;;;;;;17.25;8.30;;;;;;;9.02;63.87;101368.56;4995116;28;20117;-94
2022/03/13 00:58:02;;;;;;;15.50;9.23;;;;;;;8.91;64.57;101356.00;4993497;28;20169;-95
2022/03/13 01:00:29;;;;;;;15.73;8.80;;;;;;;8.86;64.93;101362.03;4997633;28;20029;-92
2022/03/13 01:02:54;;;;;;;15.10;8.18;;;;;;;8.78;65.03;101357.88;5002469;28;20037;-92
2022/03/13 01:05:23;;;;;;;16.97;9.43;;;;;;;8.70;65.38;101355.53;5004372;28;20022;-95
2022/03/13 01:07:49;;;;;;;15.38;9.25;;;;;;;8.64;65.73;101349.25;5000564;28;20033;-94
2022/03/13 01:10:15;;;;;;;16.13;9.18;;;;;;;8.59;65.57;101351.00;5002987;28;20066;-94
2022/03/13 01:12:40;;;;;;;14.38;9.25;;;;;;;8.62;66.15;101343.34;5005158;28;20041;-94
2022/03/13 01:15:08;;;;;;;17.13;9.17;;;;;;;8.59;65.90;101343.78;5003096;28;20035;-94
2022/03/13 01:17:34;;;;;;;15.57;9.35;;;;;;;8.53;66.26;101338.56;4996159;28;20034;-95
2022/03/13 01:20:01;;;;;;;14.13;8.20;;;;;;;8.50;66.52;101339.84;4997902;28;20034;-94
2022/03/13 01:22:27;;;;;;;17.55;8.68;;;;;;;8.41;66.76;101334.00;5013232;28;20026;-95
2022/03/13 01:24:53;;;;;;;13.67;8.70;;;;;;;8.34;67.28;101331.44;5017488;28;20030;-94
2022/03/13 01:27:20;;;;;;;13.10;8.45;;;;;;;8.24;67.78;101325.84;5024292;28;20026;-93
2022/03/13 01:29:47;;;;;;;12.65;7.90;;;;;;;8.14;67.79;101309.59;5002948;28;20032;-94
2022/03/13 01:32:13;;;;;;;18.50;9.15;;;;;;;8.10;68.17;101324.44;5013310;28;20022;-94
2022/03/13 01:34:51;;;;;;;14.70;8.52;;;;;;;8.06;68.49;101320.59;4999053;28;20026;-95
2022/03/13 01:37:30;;;;;;;14.70;8.03;;;;;;;8.01;68.28;101315.94;4993572;28;20030;-95
2022/03/13 01:39:57;;;;;;;17.77;8.67;;;;;;;7.90;69.12;101304.19;4992300;28;20499;-95
2022/03/13 01:42:23;;;;;;;14.63;8.25;;;;;;;7.83;69.38;101312.28;4974709;28;20037;-95
2022/03/13 01:44:49;;;;;;;15.57;8.18;;;;;;;7.76;70.03;101303.56;5005561;28;20021;-95
2022/03/13 01:47:14;;;;;;;12.52;7.60;;;;;;;7.70;70.22;101297.28;5011171;28;20404;-95
2022/03/13 01:49:40;;;;;;;12.77;7.37;;;;;;;7.58;70.10;101283.91;5005607;28;20330;-94
2022/03/13 01:52:05;;;;;;;15.50;7.63;;;;;;;7.53;70.47;101277.63;5011375;28;20145;-96
2022/03/13 01:54:31;;;;;;;14.32;8.35;;;;;;;7.54;70.97;101292.59;5011427;28;20030;-95
2022/03/13 01:56:57;;;;;;;15.00;7.20;;;;;;;7.50;71.14;101289.56;5003935;28;20032;-95
2022/03/13 01:59:29;;;;;;;13.88;6.90;;;;;;;7.56;71.40;101293.19;4993222;28;20037;-94
2022/03/13 02:01:56;;;;;;;13.27;7.40;;;;;;;7.57;71.51;101284.97;4995479;28;20073;-91
2022/03/13 02:04:30;;;;;;;12.90;7.68;;;;;;;7.57;71.39;101289.47;4996305;28;20027;-91
2022/03/13 02:06:56;;;;;;;15.40;7.20;;;;;;;7.57;71.81;101286.81;5004984;28;20528;-90
2022/03/13 02:09:22;;;;;;;11.73;6.70;;;;;;;7.54;71.86;101290.75;4995620;28;20343;-91
2022/03/13 02:11:47;;;;;;;14.50;7.20;;;;;;;7.58;72.02;101291.09;4995894;28;20034;-91
2022/03/13 02:14:17;;;;;;;10.32;6.68;;;;;;;7.56;72.00;101280.66;4995734;28;20041;-91
2022/03/13 02:16:42;;;;;;;12.23;7.00;;;;;;;7.60;71.91;101278.34;4998478;28;20044;-91
2022/03/13 02:19:08;;;;;;;12.80;7.17;;;;;;;7.64;71.79;101284.88;5012776;28;20292;-92
2022/03/13 02:21:39;;;;;;;15.63;7.70;;;;;;;7.64;72.23;101274.19;5013539;28;20041;-91
2022/03/13 02:24:10;;;;;;;16.10;8.00;;;;;;;7.68;71.79;101270.00;5006266;28;20488;-91
2022/03/13 02:26:36;;;;;;;13.05;7.22;;;;;;;7.68;72.33;101267.34;5013162;28;20090;-92
2022/03/13 02:29:03;;;;;;;13.87;8.17;;;;;;;7.64;71.80;101271.53;5003822;28;20022;-91
2022/03/13 02:31:36;;;;;;;15.55;8.13;;;;;;;7.66;71.98;101277.47;5011910;28;20025;-91
2022/03/13 02:34:03;;;;;;;18.02;8.63;;;;;;;7.64;71.99;101271.53;5013036;28;20121;-91
2022/03/13 02:36:31;;;;;;;17.48;9.00;;;;;;;7.60;72.01;101283.69;5014189;28;20104;-91
2022/03/13 02:38:59;;;;;;;15.95;9.02;;;;;;;7.58;71.89;101283.91;5014386;28;20028;-92
2022/03/13 02:41:26;;;;;;;16.42;8.75;;;;;;;7.57;72.06;101279.63;4997630;28;20054;-92
2022/03/13 02:43:52;;;;;;;15.57;9.70;;;;;;;7.62;72.03;101286.94;4996265;28;20033;-91
2022/03/13 02:46:20;;;;;;;17.27;9.03;;;;;;;7.57;71.93;101270.81;5004735;28;20112;-91
2022/03/13 02:48:46;;;;;;;18.43;9.43;;;;;;;7.55;71.84;101276.38;4976580;28;20347;-92
2022/03/13 02:51:12;;;;;;;15.25;8.77;;;;;;;7.56;71.85;101270.00;4994106;28;20069;-92
2022/03/13 02:53:38;;;;;;;18.00;9.50;;;;;;;7.57;72.03;101268.13;4994281;28;20023;-91
2022/03/13 02:56:03;;;;;;;18.15;9.50;;;;;;;7.57;71.85;101262.81;4977597;28;20081;-92
2022/03/13 02:58:29;;;;;;;19.75;9.65;;;;;;;7.58;72.25;101269.75;4993810;28;20153;-91
2022/03/13 03:00:58;;;;;;;20.70;10.53;;;;;;;7.58;72.74;101270.56;4994152;28;20034;-92
2022/03/13 03:03:24;;;;;;;19.33;10.65;;;;;;;7.60;72.68;101267.69;4995039;28;20030;-91
2022/03/13 03:05:49;;;;;;;19.80;10.43;;;;;;;7.57;72.52;101260.97;4993255;28;20477;-91
2022/03/13 03:08:15;;;;;;;18.85;10.93;;;;;;;7.63;72.59;101269.06;5011333;28;20033;-92
2022/03/13 03:10:41;;;;;;;19.63;11.03;;;;;;;7.61;72.84;101255.97;5013628;28;20513;-92
2022/03/13 03:13:07;;;;;;;19.33;11.23;;;;;;;7.63;73.17;101256.56;4997380;28;20030;-92
2022/03/13 03:15:33;;;;;;;17.38;10.95;;;;;;;7.63;73.69;101261.91;4993490;28;20588;-92
2022/03/13 03:17:59;;;;;;;21.35;11.48;;;;;;;7.62;73.85;101257.59;4993492;28;20121;-92
2022/03/13 03:20:24;;;;;;;17.50;10.80;;;;;;;7.61;73.93;101253.31;5008378;28;20030;-92
2022/03/13 03:22:52;;;;;;;20.50;11.40;;;;;;;7.58;74.10;101256.44;4993869;28;20080;-93
2022/03/13 03:25:23;;;;;;;21.80;10.65;;;;;;;7.57;74.27;101252.13;4994521;28;20034;-93
2022/03/13 03:27:50;;;;;;;21.73;11.80;;;;;;;7.51;74.87;101253.84;4993163;28;20033;-92
2022/03/13 03:30:19;;;;;;;23.50;12.00;;;;;;;7.47;74.97;101249.22;4995754;28;20042;-92
2022/03/13 03:32:44;;;;;;;19.73;11.88;;;;;;;7.41;76.12;101248.25;5013470;28;20030;-92
2022/03/13 03:35:10;;;;;;;21.63;12.33;;;;;;;7.38;75.95;101241.50;5012770;28;20396;-93
2022/03/13 03:37:35;;;;;;;22.20;11.90;;;;;;;7.36;76.11;101248.13;5012684;28;20022;-91
2022/03/13 03:40:00;;;;;;;21.73;12.20;;;;;;;7.34;76.57;101248.34;4995143;28;20109;-92
2022/03/13 03:42:25;;;;;;;21.50;12.20;;;;;;;7.35;76.38;101243.81;4997108;28;20041;-91
2022/03/13 03:44:51;;;;;;;23.60;12.57;;;;;;;7.37;76.51;101247.88;5012829;28;20288;-90
2022/03/13 03:47:16;;;;;;;20.77;11.50;;;;;;;7.37;78.05;101245.22;4992474;28;20529;-92
2022/03/13 03:49:43;;;;;;;26.23;12.97;;;;;;;7.38;77.17;101244.19;4993102;28;20523;-92
2022/03/13 03:52:08;;;;;;;23.65;13.00;;;;;;;7.40;76.94;101242.09;5010644;28;20045;-92
2022/03/13 03:54:33;;;;;;;20.10;12.20;;;;;;;7.40;76.86;101236.78;5002877;28;20478;-90
2022/03/13 03:56:59;;;;;;;24.23;14.13;;;;;;;7.45;76.05;101244.09;4995782;28;20034;-93
2022/03/13 03:59:24;;;;;;;23.27;13.10;;;;;;;7.48;75.69;101248.19;5006180;28;20061;-92
2022/03/13 04:01:53;;;;;;;21.57;12.67;;;;;;;7.49;75.80;101244.44;4992708;28;20428;-91
2022/03/13 04:04:18;;;;;;;26.98;13.32;;;;;;;7.51;75.14;101243.19;5002846;28;20048;-92
2022/03/13 04:06:44;;;;;;;23.07;12.67;;;;;;;7.53;75.06;101240.28;5011149;28;20472;-92
2022/03/13 04:09:11;;;;;;;24.63;13.73;;;;;;;7.56;74.26;101247.84;4993128;28;20022;-91
2022/03/13 04:11:37;;;;;;;31.65;13.85;;;;;;;7.57;74.33;101241.47;4976470;28;20030;-90
2022/03/13 04:14:03;;;;;;;24.42;13.73;;;;;;;7.61;72.81;101242.66;4994758;28;20027;-91
2022/03/13 04:16:28;;;;;;;23.00;12.20;;;;;;;7.63;73.46;101235.22;4993861;28;20322;-91
2022/03/13 04:18:54;;;;;;;28.60;14.07;;;;;;;7.63;73.61;101237.91;4995651;28;20035;-90
2022/03/13 04:21:20;;;;;;;22.15;12.15;;;;;;;7.62;73.93;101228.25;4998374;28;20052;-89
2022/03/13 04:23:46;;;;;;;25.77;13.10;;;;;;;7.63;72.96;101237.91;4999147;28;20034;-91
2022/03/13 04:26:11;;;;;;;24.23;12.90;;;;;;;7.62;73.20;101233.59;5016774;28;20025;-90
2022/03/13 04:28:36;;;;;;;22.53;13.30;;;;;;;7.61;73.94;101231.16;5015607;28;21613;-90
2022/03/13 04:31:06;;;;;;;24.37;13.37;;;;;;;7.55;74.34;101232.88;5014996;28;20022;-91
2022/03/13 04:33:34;;;;;;;24.30;13.95;;;;;;;7.55;73.82;101232.88;5015311;28;20217;-91
2022/03/13 04:36:00;;;;;;;22.63;13.05;;;;;;;7.53;74.16;101232.28;4976563;28;20393;-92
2022/03/13 04:38:27;;;;;;;22.70;13.35;;;;;;;7.53;74.19;101237.63;4976235;28;20046;-91
2022/03/13 04:40:54;;;;;;;24.63;12.77;;;;;;;7.53;75.44;101233.13;4994519;28;20034;-92
2022/03/13 04:43:21;;;;;;;25.00;13.38;;;;;;;7.48;76.02;101242.84;4992814;28;20029;-91
2022/03/13 04:45:46;;;;;;;24.30;14.03;;;;;;;7.37;76.05;101250.56;4993937;28;20569;-91
2022/03/13 04:48:12;;;;;;;27.73;13.83;;;;;;;7.27;77.25;101248.44;4992264;28;20373;-90
2022/03/13 04:50:38;;;;;;;20.75;13.18;;;;;;;7.18;78.62;101249.78;4994922;28;20029;-91
2022/03/13 04:53:03;;;;;;;25.00;13.67;;;;;;;7.09;80.06;101246.63;4993154;28;20057;-90
2022/03/13 04:55:28;;;;;;;29.95;13.77;;;;;;;7.00;79.52;101247.13;4992491;28;20436;-91
2022/03/13 04:57:54;;;;;;;22.60;13.43;;;;;;;6.88;80.99;101245.19;4993117;28;20034;-92
2022/03/13 05:00:19;;;;;;;27.97;14.30;;;;;;;6.81;82.31;101231.16;5000086;28;20034;-92
2022/03/13 05:02:44;;;;;;;24.77;13.97;;;;;;;6.71;81.89;101229.00;5006163;28;20022;-92
2022/03/13 05:05:10;;;;;;;23.90;13.93;;;;;;;6.61;82.20;101221.53;5020137;28;20057;-92
2022/03/13 05:07:37;;;;;;;24.20;13.60;;;;;;;6.53;82.64;101216.50;5022584;28;20037;-90
2022/03/13 05:10:04;;;;;;;24.80;13.67;;;;;;;6.53;83.80;101221.03;5017717;28;20295;-93
2022/03/13 05:12:29;;;;;;;26.58;13.55;;;;;;;6.40;83.35;101216.63;5010678;28;20400;-91
2022/03/13 05:14:55;;;;;;;25.27;14.10;;;;;;;6.35;83.51;101210.13;4985106;28;20041;-93
2022/03/13 05:17:20;;;;;;;22.33;13.07;;;;;;;6.31;83.71;101210.78;5012045;28;20501;-92
2022/03/13 05:19:46;;;;;;;20.30;11.20;;;;;;;6.32;83.94;101223.84;5012331;28;20574;-93
2022/03/13 05:22:11;;;;;;;25.83;13.70;;;;;;;6.31;84.89;101226.75;5012972;28;20033;-92
2022/03/13 05:24:37;;;;;;;24.17;13.73;;;;;;;6.30;83.51;101228.59;5004360;28;20386;-92
2022/03/13 05:27:02;;;;;;;25.67;13.38;;;;;;;6.30;83.62;101222.47;4993739;28;20023;-92
2022/03/13 05:29:28;;;;;;;24.20;13.37;;;;;;;6.36;83.36;101229.59;5008551;28;20115;-94
2022/03/13 05:31:55;;;;;;;23.30;13.07;;;;;;;6.36;82.81;101216.28;5030076;28;20033;-92
2022/03/13 05:34:21;;;;;;;22.65;12.98;;;;;;;6.37;82.67;101223.22;5019580;28;20091;-93
2022/03/13 05:36:52;;;;;;;24.00;14.97;;;;;;;6.47;81.83;101225.38;5015850;28;20034;-92
2022/03/13 05:39:17;;;;;;;23.52;13.20;;;;;;;6.50;81.13;101228.41;5016966;28;20068;-91
2022/03/13 05:41:53;;;;;;;24.87;13.03;;;;;;;6.46;81.25;101213.09;5014675;28;20030;-91
2022/03/13 05:44:31;;;;;;;24.00;12.68;;;;;;;6.55;81.11;101213.63;4973355;28;20048;-91
2022/03/13 05:47:21;;;;;;;25.23;13.43;;;;;;;6.65;80.86;101219.25;4974400;28;20595;-91
2022/03/13 05:49:50;;;;;;;22.27;12.00;;;;;;;6.56;80.21;101209.94;5048542;23;20045;-91
2022/03/13 05:52:18;;;;;;;25.92;13.18;;;;;;;6.63;80.57;101223.97;5029151;28;20025;-90
2022/03/13 05:55:13;;;;;;;24.30;12.95;;;;;;;6.65;79.80;101222.72;5030561;28;20022;-90
2022/03/13 05:57:38;;;;;;;25.75;13.05;;;;;;;6.62;79.30;101220.50;5018014;28;20046;-89
2022/03/13 06:00:06;;;;;;;21.53;12.50;;;;;;;6.75;79.00;101240.03;5018529;28;20032;-91
2022/03/13 06:02:32;;;;;;;24.40;12.32;;;;;;;6.72;78.40;101232.47;5009666;28;20048;-89
2022/03/13 06:04:58;;;;;;;21.92;12.15;;;;;;;6.77;79.13;101241.44;5007330;28;20065;-87
2022/03/13 06:07:28;;;;;;;20.40;12.55;;;;;;;6.71;77.96;101218.38;5007824;28;20062;-87
2022/03/13 06:09:53;;;;;;;21.43;11.33;;;;;;;6.80;77.47;101232.19;5005279;28;20033;-88
2022/03/13 06:12:19;;;;;;;21.73;12.00;;;;;;;6.81;77.53;101233.81;4991774;28;20297;-87
2022/03/13 06:14:44;;;;;;;20.50;12.40;;;;;;;6.84;77.25;101235.22;4990716;28;20023;-88
2022/03/13 06:17:10;;;;;;;25.73;13.27;;;;;;;6.84;76.85;101229.91;5003220;28;20401;-88
2022/03/13 06:19:39;;;;;;;25.27;11.88;;;;;;;6.85;75.56;101231.53;5009470;28;20033;-88
2022/03/13 06:22:05;;;;;;;21.77;11.93;;;;;;;6.87;75.88;101224.13;5010043;28;20037;-89
2022/03/13 06:24:32;;;;;;;22.30;11.40;;;;;;;6.89;76.31;101230.03;5010109;28;20037;-88
2022/03/13 06:26:58;;;;;;;22.50;11.48;;;;;;;6.90;76.04;101239.66;5005185;28;20428;-88
2022/03/13 06:29:31;;;;;;;19.77;11.97;;;;;;;6.90;74.99;101243.13;5009235;28;20033;-88
2022/03/13 06:31:57;;;;;;;20.65;11.35;;;;;;;6.90;75.71;101245.78;4995432;28;20034;-88
2022/03/13 06:34:22;;;;;;;16.83;10.57;;;;;;;6.94;75.62;101240.81;4990006;28;20093;-89
2022/03/13 06:36:48;;;;;;;18.87;11.00;;;;;;;6.94;74.25;101240.81;4998651;28;20152;-89
2022/03/13 06:39:13;;;;;;;18.80;11.30;;;;;;;6.97;74.79;101235.06;4999749;28;20122;-90
2022/03/13 06:41:38;;;;;;;22.33;11.32;;;;;;;6.96;73.26;101242.25;5009555;28;20033;-90
2022/03/13 06:44:05;;;;;;;19.80;11.63;;;;;;;6.99;74.56;101234.84;5006575;28;20053;-87
2022/03/13 06:46:32;;;;;;;19.47;11.20;;;;;;;7.01;73.75;101244.25;4993863;28;20465;-85
2022/03/13 06:48:59;;;;;;;26.63;12.80;;;;;;;6.98;73.40;101234.03;4990078;28;20296;-84
2022/03/13 06:51:30;;;;;;;22.73;11.57;;;;;;;6.95;73.33;101223.81;4995223;28;20057;-85
2022/03/13 06:53:59;;;;;;;22.65;11.43;;;;;;;6.99;73.82;101230.31;5005085;28;20030;-85
2022/03/13 06:56:38;;;;;;;26.27;11.40;;;;;;;7.11;74.37;101241.88;4999193;28;20026;-83
2022/03/13 06:59:04;;;;;;;20.58;10.50;;;;;;;7.20;73.97;101246.88;5010741;28;20033;-83
2022/03/13 07:01:33;;;;;;;20.77;11.27;;;;;;;7.26;73.18;101238.00;4987723;28;20469;-85
2022/03/13 07:03:58;;;;;;;18.97;11.17;;;;;;;7.38;71.94;101244.19;5001534;28;20291;-84
2022/03/13 07:06:23;;;;;;;20.70;11.15;;;;;;;7.47;72.47;101247.34;4996204;28;20034;-85
2022/03/13 07:08:55;;;;;;;19.07;11.00;;;;;;;7.57;72.14;101244.13;5011343;28;20034;-85
2022/03/13 07:11:21;;;;;;;20.50;11.23;;;;;;;7.68;71.41;101247.88;4995758;28;20075;-85
2022/03/13 07:13:48;;;;;;;17.83;9.82;;;;;;;7.74;69.35;101238.97;5004550;28;20215;-84
2022/03/13 07:16:23;;;;;;;20.30;10.82;;;;;;;7.78;70.43;101236.66;4998500;28;20377;-84
2022/03/13 07:18:48;;;;;;;19.98;10.27;;;;;;;7.83;70.52;101247.47;5028719;23;20038;-85
2022/03/13 07:21:16;;;;;;;20.20;11.53;;;;;;;7.84;69.85;101243.75;5031363;28;20056;-84
2022/03/13 07:23:45;;;;;;;19.25;10.02;;;;;;;7.88;68.57;101242.22;5031711;28;20049;-84
2022/03/13 07:26:10;;;;;;;21.77;11.33;;;;;;;7.91;69.87;101244.44;5013970;28;20025;-84
2022/03/13 07:28:46;;;;;;;19.00;12.17;;;;;;;7.89;70.58;101241.19;5032321;28;20767;-84
2022/03/13 07:31:20;;;;;;;20.58;10.98;;;;;;;7.77;71.32;101227.81;5027567;28;20025;-84
2022/03/13 07:34:13;;;;;;;19.38;11.32;;;;;;;7.81;71.31;101230.88;5013488;28;20030;-85
2022/03/13 07:36:39;;;;;;;20.85;11.55;;;;;;;7.85;72.98;101232.03;5005109;28;20057;-84
2022/03/13 07:39:05;;;;;;;21.50;11.65;;;;;;;7.96;73.16;101239.25;5011104;28;20384;-85
2022/03/13 07:41:33;;;;;;;20.50;11.03;;;;;;;8.01;70.10;101239.38;5014798;28;20033;-84
2022/03/13 07:44:07;;;;;;;19.40;12.15;;;;;;;7.98;71.04;101212.31;5031505;28;20091;-84
2022/03/13 07:46:33;;;;;;;21.58;10.98;;;;;;;8.13;70.77;101231.34;5016093;28;20506;-85
2022/03/13 07:51:44;;;;;;;18.70;10.27;;;;;;;8.11;69.72;101221.97;5001810;28;20496;-84
2022/03/13 07:57:31;;;;;;;21.83;11.80;;;;;;;8.16;69.76;101224.75;4996873;28;20045;-84
2022/03/13 07:59:59;;;;;;;20.20;10.93;;;;;;;8.25;69.78;101219.88;5012098;28;20300;-84
2022/03/13 08:02:24;;;;;;;21.88;12.48;;;;;;;8.28;68.43;101224.75;5018232;28;20026;-84
2022/03/13 08:04:49;;;;;;;22.50;11.23;;;;;;;8.30;68.43;101231.47;5027004;28;20021;-84
2022/03/13 08:07:15;;;;;;;22.03;12.50;;;;;;;8.37;68.37;101225.22;5017262;28;20063;-84
2022/03/13 08:09:40;;;;;;;21.07;12.00;;;;;;;8.41;68.31;101224.50;5020482;28;20046;-85
2022/03/13 08:12:09;;;;;;;23.30;11.57;;;;;;;8.53;67.72;101221.03;5012171;28;20030;-86
2022/03/13 08:14:37;;;;;;;22.05;11.70;;;;;;;8.76;66.64;101230.91;5012114;28;20026;-83
2022/03/13 08:17:03;;;;;;;18.95;11.77;;;;;;;8.76;66.50;101215.66;5011484;28;20030;-83
2022/03/13 08:19:28;;;;;;;20.27;11.30;;;;;;;8.93;65.16;101212.25;5011578;28;20030;-84
2022/03/13 08:21:54;;;;;;;21.83;11.83;;;;;;;9.17;65.26;101226.34;5007654;28;20615;-84
2022/03/13 08:24:21;;;;;;;21.23;11.50;;;;;;;9.42;64.10;101227.88;5016607;28;20062;-84
2022/03/13 08:26:46;;;;;;;18.98;11.27;;;;;;;9.51;62.33;101226.41;4997399;28;20033;-84
2022/03/13 08:29:11;;;;;;;20.63;11.83;;;;;;;9.53;62.59;101223.53;5041701;28;20026;-84
2022/03/13 08:31:38;;;;;;;19.93;12.23;;;;;;;9.51;62.24;101214.91;5049472;28;20025;-85
2022/03/13 08:34:08;;;;;;;20.05;11.68;;;;;;;9.65;62.20;101226.13;5041771;28;20018;-84
2022/03/13 08:36:37;;;;;;;20.83;11.75;;;;;;;9.78;61.86;101225.81;5006818;28;20029;-86
2022/03/13 08:39:04;;;;;;;22.45;12.23;;;;;;;9.89;60.61;101232.16;5021652;28;20109;-85
2022/03/13 08:41:29;;;;;;;17.10;11.77;;;;;;;9.95;61.35;101231.16;5025802;28;20037;-85
2022/03/13 08:43:54;;;;;;;22.67;12.03;;;;;;;9.99;60.63;101234.97;5004160;28;20106;-86
2022/03/13 08:46:25;;;;;;;24.27;11.40;;;;;;;10.11;60.62;101232.22;5027485;28;20018;-89
2022/03/13 08:48:57;;;;;;;21.85;11.63;;;;;;;10.13;59.87;101230.13;4984750;28;20056;-86
2022/03/13 08:51:23;;;;;;;25.80;11.75;;;;;;;10.21;60.24;101212.81;4991575;28;20838;-87
2022/03/13 08:53:50;;;;;;;18.65;11.07;;;;;;;10.30;58.85;101231.97;5011331;28;20049;-85
2022/03/13 08:56:22;;;;;;;21.63;12.13;;;;;;;10.28;60.19;101218.00;5021654;28;20029;-86
2022/03/13 08:58:50;;;;;;;24.95;12.20;;;;;;;10.26;59.71;101220.09;5001646;28;20026;-85
2022/03/13 09:01:19;;;;;;;24.30;11.30;;;;;;;10.29;59.16;101216.94;4993090;28;20129;-84
2022/03/13 09:03:44;;;;;;;19.43;11.23;;;;;;;10.41;59.24;101214.19;4995506;28;20048;-85
2022/03/13 09:06:16;;;;;;;22.73;12.13;;;;;;;10.38;60.85;101194.06;5008594;28;20358;-88
2022/03/13 09:08:41;;;;;;;20.83;12.43;;;;;;;10.43;59.44;101196.81;5044025;23;20038;-84
2022/03/13 09:11:07;;;;;;;20.57;11.80;;;;;;;10.48;59.72;101212.16;4976916;28;20027;-83
2022/03/13 09:13:33;;;;;;;21.42;11.57;;;;;;;10.38;58.99;101202.13;4987617;28;20022;-85
2022/03/13 09:15:58;;;;;;;28.03;13.10;;;;;;;10.39;59.83;101214.44;4985487;28;20633;-84
2022/03/13 09:18:24;;;;;;;24.17;12.40;;;;;;;10.41;59.95;101222.22;4988014;28;20121;-91
2022/03/13 09:20:52;;;;;;;23.38;12.30;;;;;;;10.46;60.00;101214.28;5056703;23;20581;-91
2022/03/13 09:23:24;;;;;;;18.75;11.25;;;;;;;10.52;59.91;101207.09;5029311;28;20026;-95
2022/03/13 09:25:50;;;;;;;21.23;12.15;;;;;;;10.60;60.00;101206.66;5018005;28;20548;-83
2022/03/13 09:28:16;;;;;;;21.97;12.07;;;;;;;10.65;59.56;101206.72;5023029;28;20025;-83
2022/03/13 09:30:41;;;;;;;21.40;12.03;;;;;;;10.72;59.86;101212.72;5029910;28;20292;-84
2022/03/13 09:33:06;;;;;;;23.13;11.90;;;;;;;10.81;59.27;101205.06;5011656;28;20049;-85
2022/03/13 09:35:32;;;;;;;19.73;11.03;;;;;;;10.92;59.42;101211.34;5030589;28;20029;-86
2022/03/13 09:37:57;;;;;;;19.08;12.10;;;;;;;11.00;57.80;101208.22;5028893;28;20029;-86
2022/03/13 09:40:22;;;;;;;21.77;12.23;;;;;;;11.08;58.38;101209.63;5029779;28;20025;-86
2022/03/13 09:42:48;;;;;;;21.47;12.77;;;;;;;11.18;58.51;101208.94;5029215;28;20029;-86
2022/03/13 09:45:14;;;;;;;20.30;11.60;;;;;;;11.25;58.16;101208.75;5002263;28;20024;-85
2022/03/13 09:47:40;;;;;;;21.92;13.82;;;;;;;11.38;58.50;101210.22;5028886;28;20025;-85
2022/03/13 09:50:07;;;;;;;22.15;12.63;;;;;;;11.42;57.42;101220.19;5028580;28;20029;-85
2022/03/13 09:52:34;;;;;;;20.92;12.40;;;;;;;11.46;56.75;101207.09;5030028;28;20022;-83
2022/03/13 09:55:00;;;;;;;18.80;11.70;;;;;;;11.54;57.31;101216.53;5029624;28;20041;-86
2022/03/13 09:57:25;;;;;;;21.07;11.80;;;;;;;11.55;56.56;101218.97;5029164;28;20334;-82
2022/03/13 09:59:51;;;;;;;20.47;12.23;;;;;;;11.61;56.79;101217.94;5028895;28;20278;-83
2022/03/13 10:02:16;;;;;;;21.15;11.77;;;;;;;11.70;56.36;101209.41;5028874;28;20041;-82
2022/03/13 10:04:42;;;;;;;19.13;12.03;;;;;;;11.71;56.42;101216.41;5029690;28;20544;-84
2022/03/13 10:07:12;;;;;;;17.13;11.13;;;;;;;11.73;56.87;101204.38;5028977;28;20029;-84
2022/03/13 10:09:40;;;;;;;19.98;11.32;;;;;;;11.78;56.68;101203.59;5029497;28;20026;-84
2022/03/13 10:12:13;;;;;;;21.70;11.13;;;;;;;11.90;56.07;101209.59;5011607;28;20098;-85
2022/03/13 10:14:59;;;;;;;20.00;12.10;;;;;;;11.92;56.46;101207.44;5028957;28;20033;-85
2022/03/13 10:17:29;;;;;;;18.03;11.70;;;;;;;12.00;55.69;101202.72;5028392;28;20830;-85
2022/03/13 10:20:14;;;;;;;19.40;11.82;;;;;;;12.09;55.24;101207.34;5029056;28;20515;-85
2022/03/13 10:22:41;;;;;;;18.80;10.85;;;;;;;12.18;55.48;101193.41;5033491;28;20030;-86
2022/03/13 10:25:07;;;;;;;18.27;11.70;;;;;;;12.28;55.30;101190.81;5033030;28;20029;-86
2022/03/13 10:27:33;;;;;;;24.20;11.63;;;;;;;12.40;54.74;101195.97;5032825;28;20029;-85
2022/03/13 10:30:01;;;;;;;19.17;10.83;;;;;;;12.51;55.21;101181.50;5032865;28;20026;-86
2022/03/13 10:32:36;;;;;;;21.10;11.77;;;;;;;12.61;54.69;101175.38;5033023;28;20582;-87
2022/03/13 10:35:03;;;;;;;18.17;11.70;;;;;;;12.65;54.04;101181.84;5033059;28;20476;-85
2022/03/13 10:37:33;;;;;;;16.65;10.43;;;;;;;12.72;53.46;101177.00;5031932;28;20469;-86
2022/03/13 10:40:24;;;;;;;21.80;11.50;;;;;;;12.78;54.32;101171.66;5032799;28;20396;-85
2022/03/13 10:42:51;;;;;;;19.73;10.80;;;;;;;12.84;53.17;101162.53;5033290;28;20101;-86
2022/03/13 10:45:53;;;;;;;17.20;11.57;;;;;;;12.86;54.63;101165.78;5032057;28;20123;-85
2022/03/13 10:48:21;;;;;;;17.52;11.57;;;;;;;12.92;53.17;101164.69;4931819;29;20051;-85
2022/03/13 10:50:50;;;;;;;16.37;10.50;;;;;;;12.98;53.83;101170.91;5010856;28;20523;-86
2022/03/13 10:53:15;;;;;;;16.53;9.50;;;;;;;13.08;53.28;101157.47;5031795;28;20288;-86
2022/03/13 10:55:44;;;;;;;15.60;10.10;;;;;;;13.25;53.30;101164.50;5033173;28;20033;-85
2022/03/13 10:58:11;;;;;;;21.93;10.57;;;;;;;13.40;52.03;101163.72;5013470;28;20022;-85
2022/03/13 11:00:36;;;;;;;16.67;9.67;;;;;;;13.55;53.16;101155.66;5032125;28;20729;-86
2022/03/13 11:03:12;;;;;;;13.40;8.95;;;;;;;13.77;51.98;101165.34;5032808;28;20017;-86
2022/03/13 11:05:39;;;;;;;13.93;9.23;;;;;;;13.97;51.25;101156.41;5032436;28;20037;-87
2022/03/13 11:08:07;;;;;;;15.15;10.05;;;;;;;14.13;50.91;101156.38;5032128;28;20026;-87
2022/03/13 11:10:56;;;;;;;13.88;9.35;;;;;;;14.31;50.94;101160.38;5032633;28;20034;-87
2022/03/13 11:13:25;;;;;;;14.60;9.93;;;;;;;14.43;49.47;101158.19;5032116;28;20090;-88
2022/03/13 11:15:57;;;;;;;15.10;10.63;;;;;;;14.44;49.03;101149.00;5033203;28;20835;-87
2022/03/13 11:18:29;;;;;;;19.48;10.45;;;;;;;14.40;48.85;101153.31;5032567;28;20111;-87
2022/03/13 11:20:54;;;;;;;14.38;9.13;;;;;;;14.54;49.30;101142.75;5033301;28;20029;-87
2022/03/13 11:23:23;;;;;;;16.33;9.93;;;;;;;14.56;48.66;101135.22;5035525;28;20037;-87
2022/03/13 11:25:49;;;;;;;16.75;9.90;;;;;;;14.50;49.25;101136.31;5038280;28;20021;-86
2022/03/13 11:28:15;;;;;;;13.73;9.43;;;;;;;14.49;47.76;101134.69;5034998;28;20503;-84